Time;durP1;ratioP1;P1;durP2;ratioP2;P2;SDS_P1;SDS_P2;PMS_P1;PMS_P2;Temp;Humidity;BMP_temperature;BMP_pressure;BME280_temperature;BME280_humidity;BME280_pressure;Samples;Min_cycle;Max_cycle;Signal;HPM_P1;HPM_P2
2021/11/02 00:01:29;;;;;;;12.25;11.12;;;;;;;16.46;47.34;99585.89;1787397;79;21113;-60
2021/11/02 00:03:57;;;;;;;12.85;11.55;;;;;;;16.45;47.33;99585.05;1792491;79;21079;-61
2021/11/02 00:06:24;;;;;;;12.75;11.48;;;;;;;16.45;47.32;99581.55;1788510;79;21123;-60
2021/11/02 00:08:51;;;;;;;13.08;11.85;;;;;;;16.45;47.31;99583.70;1784654;79;21025;-60
2021/11/02 00:11:18;;;;;;;13.83;12.50;;;;;;;16.44;47.32;99584.75;1797987;79;21096;-61
2021/11/02 00:13:49;;;;;;;12.85;11.65;;;;;;;16.44;47.29;99587.95;1791544;79;21774;-62
2021/11/02 00:16:22;;;;;;;13.65;12.25;;;;;;;16.44;47.29;99586.62;1791669;79;21009;-60
2021/11/02 00:18:59;;;;;;;13.03;11.73;;;;;;;16.43;47.34;99574.23;1795184;79;21087;-61
2021/11/02 00:21:17;;;;;;;14.20;12.23;;;;;;;16.43;47.32;99576.91;1783678;79;21508;-60
2021/11/02 00:23:44;;;;;;;12.13;10.93;;;;;;;16.43;47.30;99575.58;1799026;79;21517;-62
2021/11/02 00:26:13;;;;;;;14.47;12.98;;;;;;;16.41;47.29;99567.73;1789918;79;21057;-60
2021/11/02 00:28:40;;;;;;;13.10;11.68;;;;;;;16.41;47.30;99562.38;1787141;80;20993;-60
2021/11/02 00:31:06;;;;;;;13.88;12.47;;;;;;;16.41;47.25;99559.69;1781463;79;21132;-60
2021/11/02 00:33:34;;;;;;;12.90;11.60;;;;;;;16.41;47.29;99556.19;1785703;79;21037;-61
2021/11/02 00:36:01;;;;;;;13.50;12.20;;;;;;;16.41;47.27;99561.55;1792088;79;21049;-60
2021/11/02 00:38:27;;;;;;;13.13;11.83;;;;;;;16.40;47.28;99560.74;1781040;79;21065;-60
2021/11/02 00:40:54;;;;;;;14.13;12.70;;;;;;;16.41;47.27;99564.23;1780442;79;21060;-61
2021/11/02 00:43:24;;;;;;;13.22;11.88;;;;;;;16.40;47.26;99561.23;1785880;79;23207;-61
2021/11/02 00:45:49;;;;;;;14.25;12.85;;;;;;;16.39;47.26;99564.97;1786897;80;21009;-60
2021/11/02 00:48:23;;;;;;;12.93;11.60;;;;;;;16.38;47.29;99563.30;1770188;79;22005;-61
2021/11/02 00:50:45;;;;;;;14.10;12.70;;;;;;;16.37;47.26;99559.00;1777325;79;21049;-61
2021/11/02 00:53:12;;;;;;;13.62;12.23;;;;;;;16.38;47.26;99555.27;1791251;79;21549;-60
2021/11/02 00:55:40;;;;;;;13.95;12.50;;;;;;;16.37;47.27;99546.93;1780224;79;21514;-61
2021/11/02 00:58:07;;;;;;;13.70;12.35;;;;;;;16.37;47.27;99556.31;1778374;79;21019;-63
2021/11/02 01:00:35;;;;;;;13.38;12.03;;;;;;;16.36;47.26;99559.52;1788993;79;21493;-60
2021/11/02 01:03:03;;;;;;;13.88;12.47;;;;;;;16.35;47.25;99553.02;1783559;79;20986;-61
2021/11/02 01:05:31;;;;;;;14.30;12.93;;;;;;;16.34;47.26;99558.91;1789420;79;21578;-62
2021/11/02 01:07:58;;;;;;;12.88;11.57;;;;;;;16.34;47.28;99557.56;1793477;79;21514;-61
2021/11/02 01:10:24;;;;;;;13.95;12.58;;;;;;;16.34;47.28;99558.91;1787380;79;21625;-61
2021/11/02 01:12:52;;;;;;;13.90;12.50;;;;;;;16.33;47.26;99559.92;1785259;79;21038;-60
2021/11/02 01:15:23;;;;;;;14.55;12.88;;;;;;;16.32;47.26;99556.92;1789310;79;21572;-62
2021/11/02 01:17:51;;;;;;;13.83;12.53;;;;;;;16.31;47.27;99541.36;1793130;79;21069;-61
2021/11/02 01:20:17;;;;;;;14.63;13.32;;;;;;;16.30;47.28;99533.53;1786825;79;21101;-61
2021/11/02 01:22:45;;;;;;;13.38;12.03;;;;;;;16.30;47.29;99537.05;1792651;79;21661;-61
2021/11/02 01:25:14;;;;;;;14.73;12.75;;;;;;;16.29;47.28;99531.38;1782754;79;21093;-61
2021/11/02 01:27:43;;;;;;;14.47;12.98;;;;;;;16.29;47.29;99539.41;1789542;79;21022;-62
2021/11/02 01:30:12;;;;;;;13.60;12.30;;;;;;;16.28;47.29;99540.47;1801394;79;21066;-60
2021/11/02 01:32:40;;;;;;;14.87;13.38;;;;;;;16.28;47.30;99531.58;1792267;79;21128;-62
2021/11/02 01:35:08;;;;;;;14.68;12.90;;;;;;;16.28;47.28;99530.23;1778974;79;21561;-60
2021/11/02 01:37:39;;;;;;;14.70;13.22;;;;;;;16.28;47.29;99528.89;1794711;79;20986;-60
2021/11/02 01:40:09;;;;;;;14.18;12.73;;;;;;;16.27;47.30;99520.05;1797117;79;21025;-61
2021/11/02 01:42:38;;;;;;;12.73;11.53;;;;;;;16.25;47.27;99524.79;1796518;79;21042;-61
2021/11/02 01:45:08;;;;;;;14.33;12.85;;;;;;;16.26;47.29;99528.28;1780580;79;21568;-60
2021/11/02 01:47:36;;;;;;;14.47;12.98;;;;;;;16.25;47.30;99523.45;1778913;80;21052;-61
2021/11/02 01:50:05;;;;;;;14.18;12.85;;;;;;;16.25;47.30;99530.67;1746486;81;21003;-61
2021/11/02 01:52:34;;;;;;;14.25;12.90;;;;;;;16.24;47.32;99526.34;1783334;79;21042;-61
2021/11/02 01:55:01;;;;;;;13.58;12.18;;;;;;;16.23;47.28;99527.38;1781397;79;21539;-61
2021/11/02 01:57:30;;;;;;;13.58;12.28;;;;;;;16.24;47.29;99527.15;1781363;79;21710;-61
2021/11/02 01:59:57;;;;;;;15.43;13.68;;;;;;;16.24;47.31;99514.27;1798520;79;21015;-60
2021/11/02 02:02:34;;;;;;;14.55;13.15;;;;;;;16.23;47.29;99508.63;1797468;79;20999;-62
2021/11/02 02:05:25;;;;;;;14.58;12.95;;;;;;;16.22;47.30;99506.44;1755424;80;20983;-61
2021/11/02 02:08:32;;;;;;;14.65;13.25;;;;;;;16.21;47.32;99496.77;1799231;79;21030;-61
2021/11/02 02:11:04;;;;;;;14.15;12.80;;;;;;;16.20;47.33;99502.33;1769175;80;21117;-60
2021/11/02 02:13:55;;;;;;;15.15;13.65;;;;;;;16.18;47.36;99497.17;1775477;79;21018;-61
2021/11/02 02:16:27;;;;;;;14.75;13.25;;;;;;;16.18;47.39;99504.40;1784250;79;21454;-61
2021/11/02 02:19:33;;;;;;;13.93;12.50;;;;;;;16.16;47.38;99509.15;1781462;79;21510;-61
2021/11/02 02:22:25;;;;;;;;;;;;;;;16.15;47.41;99506.15;1782100;80;20994;-61
2021/11/02 02:25:32;;;;;;;13.75;12.35;;;;;;;16.12;47.44;99506.88;1765789;80;21277;-60
2021/11/02 02:28:22;;;;;;;14.78;13.25;;;;;;;16.07;47.51;99504.02;1769647;80;21094;-60
2021/11/02 02:31:00;;;;;;;14.75;13.25;;;;;;;16.05;47.56;99507.43;1767012;80;21062;-61
2021/11/02 02:33:37;;;;;;;14.07;12.78;;;;;;;16.05;47.58;99501.23;1761299;80;21045;-60
2021/11/02 02:36:04;;;;;;;14.87;13.48;;;;;;;16.05;47.57;99493.19;1754098;79;21581;-61
2021/11/02 02:38:35;;;;;;;15.25;13.75;;;;;;;16.04;47.59;99492.38;1771076;79;21389;-62
2021/11/02 02:41:03;;;;;;;13.85;12.55;;;;;;;16.04;47.60;99489.69;1769292;79;21038;-60
2021/11/02 02:43:31;;;;;;;15.45;13.93;;;;;;;16.04;47.60;99484.86;1795818;79;21015;-62
2021/11/02 02:45:58;;;;;;;15.08;13.62;;;;;;;16.05;47.58;99486.48;1752280;79;21513;-61
2021/11/02 02:49:56;;;;;;;15.63;14.23;;;;;;;16.09;47.57;99479.70;1799026;79;28172;-61
2021/11/02 02:52:23;;;;;;;14.68;13.30;;;;;;;16.05;47.56;99478.45;1757091;80;21038;-60
2021/11/02 02:54:51;;;;;;;15.35;13.75;;;;;;;16.06;47.56;99476.09;1736595;81;21137;-60
2021/11/02 02:57:19;;;;;;;15.68;13.55;;;;;;;16.06;47.57;99481.45;1757060;81;21077;-60
2021/11/02 02:59:46;;;;;;;14.93;13.35;;;;;;;16.06;47.56;99479.59;1757766;80;21565;-61
2021/11/02 03:02:13;;;;;;;14.50;13.10;;;;;;;16.06;47.53;99480.11;1757305;81;21030;-60
2021/11/02 03:04:40;;;;;;;14.58;13.22;;;;;;;16.07;47.55;99477.23;1757073;80;20931;-60
2021/11/02 03:07:08;;;;;;;15.58;14.00;;;;;;;16.06;47.52;99471.55;1757026;80;21888;-61
2021/11/02 03:09:35;;;;;;;15.72;14.18;;;;;;;16.08;47.52;99464.64;1703436;81;21017;-61
2021/11/02 03:12:03;;;;;;;15.05;13.55;;;;;;;16.07;47.51;99463.83;1756057;80;20957;-61
2021/11/02 03:14:41;;;;;;;15.70;14.15;;;;;;;16.08;47.50;99461.97;1755830;80;21057;-60
2021/11/02 03:17:11;;;;;;;14.20;12.90;;;;;;;16.08;47.51;99465.98;1735735;81;21040;-60
2021/11/02 03:50:02;;;;;;;15.10;13.68;;;;;;;15.96;47.70;99451.61;1756647;81;21006;-60
2021/11/02 03:54:53;;;;;;;15.48;13.78;;;;;;;15.96;47.70;99446.25;1693193;80;21018;-61
2021/11/02 05:20:32;;;;;;;14.83;13.32;;;;;;;15.77;47.92;99396.52;1753838;81;21505;-62
2021/11/02 05:47:24;;;;;;;15.32;13.88;;;;;;;15.73;48.01;99385.93;1756754;81;21563;-61
2021/11/02 05:52:45;;;;;;;16.40;14.38;;;;;;;15.72;48.01;99396.29;1756578;81;21010;-61
2021/11/02 05:55:12;;;;;;;15.28;13.83;;;;;;;15.73;48.01;99395.30;1737588;80;21524;-61
2021/11/02 06:00:20;;;;;;;16.27;14.70;;;;;;;15.73;48.04;99396.12;1759149;80;21533;-61
2021/11/02 06:03:11;;;;;;;16.30;14.60;;;;;;;15.73;48.03;99402.00;1756651;80;21936;-60
2021/11/02 06:05:44;;;;;;;15.55;13.95;;;;;;;15.72;48.02;99400.31;1754401;81;21014;-61
2021/11/02 06:11:19;;;;;;;15.32;13.75;;;;;;;15.73;48.03;99404.67;1756061;80;21038;-62
2021/11/02 06:28:02;;;;;;;15.78;14.18;;;;;;;15.71;48.06;99404.03;1756289;81;21680;-62
2021/11/02 06:33:12;;;;;;;15.48;13.53;;;;;;;15.70;48.07;99409.07;1755096;81;20991;-61
2021/11/02 06:35:45;;;;;;;15.93;14.33;;;;;;;15.70;48.11;99403.22;1735119;80;21058;-62
2021/11/02 06:38:26;;;;;;;15.35;13.85;;;;;;;15.68;48.09;99399.93;1755017;81;21056;-62
2021/11/02 06:46:04;;;;;;;13.95;12.53;;;;;;;15.70;48.06;99404.56;1755783;80;21050;-61
2021/11/02 06:48:38;;;;;;;15.48;13.68;;;;;;;15.70;48.07;99396.52;1747816;80;21046;-62
2021/11/02 07:16:32;;;;;;;14.90;13.50;;;;;;;15.67;48.16;99398.80;1761105;80;21016;-63
2021/11/02 07:18:43;;;;;;;16.65;14.98;;;;;;;15.66;48.15;99400.63;1734080;81;21065;-60
2021/11/02 07:21:33;;;;;;;14.53;13.03;;;;;;;15.67;48.17;99400.95;1756554;80;21058;-61
2021/11/02 07:24:01;;;;;;;;;;;;;;;15.66;48.15;99393.94;1725743;81;21165;-61
2021/11/02 07:29:31;;;;;;;14.90;13.30;;;;;;;15.65;48.21;99396.84;1735976;81;21030;-63
2021/11/02 08:45:20;;;;;;;14.18;12.80;;;;;;;15.64;48.34;99332.27;1749062;81;21078;-63
2021/11/02 08:47:38;;;;;;;14.60;13.10;;;;;;;15.64;48.34;99336.28;1749250;81;21145;-63
2021/11/02 08:50:06;;;;;;;13.55;12.10;;;;;;;15.64;48.33;99325.05;1757848;81;21052;-62
2021/11/02 08:52:33;;;;;;;14.28;12.85;;;;;;;15.65;48.33;99327.23;1745329;80;21010;-63
2021/11/02 08:55:00;;;;;;;14.20;12.80;;;;;;;15.65;48.31;99321.34;1751446;82;21510;-61
2021/11/02 08:57:27;;;;;;;14.55;13.15;;;;;;;15.66;48.31;99317.63;1751343;80;21010;-62
2021/11/02 08:59:55;;;;;;;14.23;12.82;;;;;;;15.67;48.29;99319.28;1750271;81;21178;-61
2021/11/02 09:02:33;;;;;;;13.55;12.13;;;;;;;15.69;48.29;99315.87;1745891;81;21574;-62
2021/11/02 09:05:07;;;;;;;14.40;12.90;;;;;;;15.69;48.28;99305.16;1746808;81;21000;-62
2021/11/02 09:07:34;;;;;;;14.35;12.95;;;;;;;15.68;48.28;99306.20;1745051;81;20994;-61
2021/11/02 09:10:01;;;;;;;13.98;12.50;;;;;;;15.69;48.26;99301.67;1751001;80;20987;-62
2021/11/02 09:12:33;;;;;;;13.35;12.05;;;;;;;15.70;48.25;99300.13;1751475;81;21190;-62
2021/11/02 09:15:02;;;;;;;14.28;12.88;;;;;;;15.71;48.24;99296.39;1751200;80;21078;-62
2021/11/02 09:17:34;;;;;;;13.55;12.25;;;;;;;15.71;48.24;99291.56;1751355;82;21055;-62
2021/11/02 09:20:02;;;;;;;13.55;12.25;;;;;;;15.72;48.22;99293.19;1751391;82;21548;-62
2021/11/02 09:22:31;;;;;;;13.15;11.85;;;;;;;15.72;48.22;99288.68;1751467;80;21034;-62
2021/11/02 09:25:00;;;;;;;13.00;11.65;;;;;;;15.72;48.20;99274.45;1760513;81;21494;-61
2021/11/02 09:27:27;;;;;;;14.30;12.40;;;;;;;15.72;48.24;99275.29;1746445;81;22055;-63
2021/11/02 09:29:56;;;;;;;14.05;12.65;;;;;;;15.73;48.21;99264.09;1748452;80;21042;-60
2021/11/02 09:32:24;;;;;;;13.43;12.15;;;;;;;15.75;48.19;99262.02;1751563;81;21010;-65
2021/11/02 09:34:53;;;;;;;13.78;12.45;;;;;;;15.75;48.19;99258.00;1751347;81;21041;-61
2021/11/02 09:37:26;;;;;;;14.13;12.65;;;;;;;15.76;48.18;99262.33;1725112;80;21862;-61
2021/11/02 09:39:52;;;;;;;13.90;12.40;;;;;;;15.77;48.17;99249.75;1744455;80;20987;-61
2021/11/02 09:42:58;;;;;;;12.65;11.55;;;;;;;15.77;48.17;99247.89;1727444;82;21073;-62
2021/11/02 09:45:56;;;;;;;12.90;11.60;;;;;;;15.78;48.17;99240.67;1728591;80;21014;-61
2021/11/02 09:48:51;;;;;;;12.53;11.22;;;;;;;15.77;48.17;99241.72;1734763;80;21094;-61
2021/11/02 09:51:40;;;;;;;13.58;12.28;;;;;;;15.76;48.19;99235.55;1745632;80;21760;-63
2021/11/02 09:54:24;;;;;;;12.95;11.63;;;;;;;15.75;48.22;99231.22;1734177;81;21074;-62
2021/11/02 09:57:20;;;;;;;12.70;11.50;;;;;;;15.75;48.23;99227.20;1746121;81;21008;-62
2021/11/02 10:00:19;;;;;;;12.85;11.55;;;;;;;15.75;48.26;99214.34;1730788;82;20999;-62
2021/11/02 10:03:26;;;;;;;13.03;11.75;;;;;;;15.75;48.26;99208.45;1727196;82;21066;-63
2021/11/02 10:06:27;;;;;;;13.08;11.85;;;;;;;15.73;48.30;99204.64;1723146;82;21152;-61
2021/11/02 10:09:34;;;;;;;12.90;11.57;;;;;;;15.74;48.31;99209.47;1731608;82;21495;-62
2021/11/02 10:12:16;;;;;;;12.20;11.00;;;;;;;15.75;48.33;99202.28;1725541;82;21519;-61
2021/11/02 10:15:03;;;;;;;11.65;10.55;;;;;;;15.73;48.35;99195.80;1740210;81;21034;-63
2021/11/02 10:18:18;;;;;;;11.60;10.50;;;;;;;15.74;48.36;99198.77;1745966;81;20999;-62
2021/11/02 10:21:22;;;;;;;11.68;10.48;;;;;;;15.75;48.37;99192.39;1741876;80;23229;-62
2021/11/02 10:24:27;;;;;;;;;;;;;;;15.74;48.38;99184.03;1769175;80;21675;-62
2021/11/02 10:27:35;;;;;;;10.70;9.60;;;;;;;15.75;48.41;99186.22;1743077;80;20211;-62
2021/11/02 10:30:27;;;;;;;12.20;11.00;;;;;;;15.70;48.46;99178.28;1743013;81;21046;-60
2021/11/02 10:33:20;;;;;;;12.60;11.08;;;;;;;15.70;48.49;99176.95;1743759;82;21007;-62
2021/11/02 10:36:17;;;;;;;11.50;10.40;;;;;;;15.71;48.48;99174.55;1729365;82;21076;-61
2021/11/02 10:39:09;;;;;;;11.60;10.43;;;;;;;15.70;48.50;99164.89;1738501;82;21711;-61
2021/11/02 10:42:05;;;;;;;11.43;10.32;;;;;;;15.71;48.49;99161.17;1740696;81;21077;-62
2021/11/02 10:44:46;;;;;;;11.48;10.35;;;;;;;15.71;48.52;99161.69;1713328;81;21079;-61
2021/11/02 10:47:19;;;;;;;11.65;10.55;;;;;;;15.71;48.52;99155.00;1743793;81;21155;-62
2021/11/02 10:50:06;;;;;;;12.07;10.88;;;;;;;15.71;48.52;99151.80;1739274;80;21148;-63
2021/11/02 10:52:36;;;;;;;11.20;10.10;;;;;;;15.72;48.53;99145.91;1743177;80;21070;-62
2021/11/02 10:55:24;;;;;;;11.25;10.20;;;;;;;15.73;48.50;99144.92;1747914;81;21093;-63
2021/11/02 10:58:27;;;;;;;11.78;10.58;;;;;;;15.75;48.50;99140.70;1746260;80;21649;-61
2021/11/02 11:00:53;;;;;;;10.80;9.80;;;;;;;15.75;48.50;99137.48;1742938;80;21026;-62
2021/11/02 11:03:26;;;;;;;11.00;10.00;;;;;;;15.75;48.50;99124.10;1741661;81;21231;-61
2021/11/02 11:05:55;;;;;;;;;;;;;;;15.76;48.49;99122.23;1740116;81;21563;-63
2021/11/02 11:08:30;;;;;;;11.12;10.03;;;;;;;15.75;48.50;99113.39;1738895;80;20145;-61
2021/11/02 11:10:58;;;;;;;10.95;9.85;;;;;;;15.73;48.54;99106.09;1740546;82;21030;-62
2021/11/02 11:13:29;;;;;;;10.43;9.43;;;;;;;15.75;48.54;99109.90;1740634;80;21038;-62
2021/11/02 11:16:15;;;;;;;10.55;9.55;;;;;;;15.76;48.53;99104.33;1742456;81;21160;-63
2021/11/02 11:19:13;;;;;;;10.88;9.78;;;;;;;15.77;48.50;99097.92;1741883;81;21017;-62
2021/11/02 11:21:40;;;;;;;9.75;8.83;;;;;;;15.78;48.49;99094.72;1742027;81;21003;-63
2021/11/02 11:24:24;;;;;;;10.85;9.85;;;;;;;15.78;48.49;99092.04;1740978;81;21003;-62
2021/11/02 11:26:52;;;;;;;9.80;8.90;;;;;;;15.78;48.50;99090.70;1734936;80;21511;-61
2021/11/02 11:29:26;;;;;;;9.88;9.08;;;;;;;15.78;48.49;99092.88;1742652;82;21167;-60
2021/11/02 11:31:58;;;;;;;9.93;9.03;;;;;;;15.78;48.48;99083.51;1743669;80;21055;-60
2021/11/02 11:34:32;;;;;;;9.80;8.90;;;;;;;15.79;48.48;99078.97;1748125;80;21022;-62
2021/11/02 11:37:00;;;;;;;10.03;9.03;;;;;;;15.79;48.48;99078.44;1747596;81;21078;-62
2021/11/02 11:39:30;;;;;;;9.75;8.85;;;;;;;15.78;48.50;99078.16;1728446;81;21502;-61
2021/11/02 11:41:56;;;;;;;10.25;9.35;;;;;;;15.79;48.49;99073.08;1723891;81;21112;-61
2021/11/02 11:44:23;;;;;;;10.25;9.35;;;;;;;15.80;48.47;99074.73;1743380;82;21051;-62
2021/11/02 11:47:10;;;;;;;10.08;9.08;;;;;;;15.81;48.46;99072.34;1743671;81;21098;-63
2021/11/02 11:49:40;;;;;;;9.70;8.80;;;;;;;15.80;48.46;99064.02;1665145;82;22017;-62
2021/11/02 11:52:08;;;;;;;9.75;8.85;;;;;;;15.81;48.46;99060.29;1698016;82;21050;-61
2021/11/02 11:54:52;;;;;;;9.20;8.40;;;;;;;15.82;48.45;99050.39;1713534;82;21074;-60
2021/11/02 11:57:34;;;;;;;9.53;8.63;;;;;;;15.82;48.46;99052.58;1718990;82;21057;-63
2021/11/02 12:00:10;;;;;;;9.03;8.13;;;;;;;15.84;48.42;99050.98;1690113;82;21600;-62
2021/11/02 12:03:20;;;;;;;9.78;8.85;;;;;;;15.82;48.45;99047.71;1740899;82;21533;-60
2021/11/02 12:06:01;;;;;;;8.68;7.87;;;;;;;15.82;48.46;99045.03;1744814;82;21074;-61
2021/11/02 12:08:39;;;;;;;9.55;8.65;;;;;;;15.81;48.47;99044.22;1733579;82;21146;-62
2021/11/02 12:11:06;;;;;;;8.90;8.08;;;;;;;15.81;48.48;99040.73;1750308;81;21468;-60
2021/11/02 12:13:40;;;;;;;8.55;7.75;;;;;;;15.81;48.48;99040.20;1733830;81;21020;-62
2021/11/02 12:16:22;;;;;;;9.30;8.40;;;;;;;15.81;48.50;99042.88;1756201;81;21070;-61
2021/11/02 12:19:05;;;;;;;9.38;8.58;;;;;;;15.82;48.50;99045.03;1714102;82;21022;-61
2021/11/02 12:21:34;;;;;;;9.23;8.43;;;;;;;15.82;48.50;99050.39;1750188;81;21154;-60
2021/11/02 12:24:06;;;;;;;9.38;8.55;;;;;;;15.81;48.54;99049.58;1759752;81;22015;-60
2021/11/02 12:26:48;;;;;;;8.90;8.10;;;;;;;15.80;48.50;99050.63;1690986;83;21098;-61
2021/11/02 12:29:23;;;;;;;8.73;7.92;;;;;;;15.81;48.52;99050.91;1749037;81;21687;-60
2021/11/02 12:32:01;;;;;;;7.97;7.22;;;;;;;15.81;48.54;99052.78;1752025;81;21601;-61
2021/11/02 12:34:32;;;;;;;8.88;8.08;;;;;;;15.81;48.54;99052.26;1740376;81;21810;-61
2021/11/02 12:36:59;;;;;;;8.13;7.42;;;;;;;15.80;48.53;99061.34;1746664;81;21443;-61
2021/11/02 12:39:28;;;;;;;9.10;8.30;;;;;;;15.79;48.54;99054.34;1746324;81;21509;-62
2021/11/02 12:41:57;;;;;;;9.10;8.20;;;;;;;15.80;48.56;99054.65;1745937;82;21073;-61
2021/11/02 12:44:29;;;;;;;8.00;7.30;;;;;;;15.81;48.56;99051.45;1747752;81;21022;-61
2021/11/02 12:46:59;;;;;;;7.83;7.20;;;;;;;15.81;48.55;99050.91;1738212;82;21023;-65
2021/11/02 12:49:42;;;;;;;7.78;7.08;;;;;;;15.79;48.55;99042.28;1750756;80;21058;-62
2021/11/02 12:52:11;;;;;;;8.68;7.42;;;;;;;15.80;48.55;99047.95;1754253;81;21967;-62
2021/11/02 12:54:38;;;;;;;7.80;7.10;;;;;;;15.80;48.56;99047.11;1756701;80;21010;-61
2021/11/02 12:57:14;;;;;;;7.97;7.17;;;;;;;15.79;48.56;99040.95;1693541;83;21527;-61
2021/11/02 12:59:47;;;;;;;8.10;7.40;;;;;;;15.80;48.56;99031.89;1714300;82;21878;-61
2021/11/02 13:02:34;;;;;;;8.20;7.50;;;;;;;15.79;48.56;99026.74;1691957;82;22074;-62
2021/11/02 13:05:20;;;;;;;8.83;8.03;;;;;;;15.79;48.56;99027.55;1701251;82;21553;-63
2021/11/02 13:07:55;;;;;;;7.97;7.28;;;;;;;15.78;48.56;99032.63;1675910;84;21321;-62
2021/11/02 13:10:23;;;;;;;8.15;7.35;;;;;;;15.77;48.58;99034.99;1668225;83;21050;-60
2021/11/02 13:12:51;;;;;;;8.48;7.70;;;;;;;15.78;48.58;99034.46;1691736;82;21165;-62
2021/11/02 13:15:18;;;;;;;7.75;7.05;;;;;;;15.77;48.59;99036.33;1695335;82;21095;-61
2021/11/02 13:17:50;;;;;;;8.20;7.37;;;;;;;15.77;48.60;99027.48;1697750;82;21082;-62
2021/11/02 13:20:35;;;;;;;8.15;7.35;;;;;;;15.76;48.60;99021.31;1718510;83;21247;-62
2021/11/02 13:23:03;;;;;;;7.50;6.80;;;;;;;15.77;48.59;99012.76;1694212;84;21065;-61
2021/11/02 13:25:36;;;;;;;7.75;7.05;;;;;;;15.76;48.62;99015.13;1689666;84;21169;-62
2021/11/02 13:28:02;;;;;;;8.40;7.60;;;;;;;15.76;48.63;99015.13;1691203;84;21031;-61
2021/11/02 13:30:41;;;;;;;7.97;7.28;;;;;;;15.76;48.62;99011.11;1720026;82;21089;-63
2021/11/02 13:33:23;;;;;;;7.80;7.10;;;;;;;15.76;48.63;99007.09;1695880;83;21727;-62
2021/11/02 13:36:04;;;;;;;8.28;7.47;;;;;;;15.75;48.64;99004.94;1704705;83;22150;-61
2021/11/02 13:38:39;;;;;;;7.30;6.70;;;;;;;15.74;48.66;99004.63;1714598;83;21223;-61
2021/11/02 13:41:27;;;;;;;7.50;6.90;;;;;;;15.73;48.66;99010.50;1712390;83;21029;-61
2021/11/02 13:44:01;;;;;;;7.33;6.62;;;;;;;15.73;48.68;99009.69;1709474;83;21011;-61
2021/11/02 13:46:32;;;;;;;7.35;6.65;;;;;;;15.72;48.68;98997.30;1720182;83;21542;-62
2021/11/02 13:48:59;;;;;;;7.75;6.95;;;;;;;15.72;48.69;98995.96;1711322;82;21078;-60
2021/11/02 13:51:26;;;;;;;7.60;6.90;;;;;;;15.72;48.72;98991.94;1710401;82;21853;-61
2021/11/02 13:53:53;;;;;;;7.37;6.67;;;;;;;15.71;48.72;98987.64;1692738;83;21097;-61
2021/11/02 13:56:25;;;;;;;7.50;6.80;;;;;;;15.70;48.73;98987.33;1689950;83;21114;-61
2021/11/02 13:58:51;;;;;;;7.55;6.85;;;;;;;15.71;48.72;98983.62;1702273;83;21058;-61
2021/11/02 14:01:47;;;;;;;7.33;6.72;;;;;;;15.71;48.72;98984.97;1688274;84;21059;-63
2021/11/02 14:04:30;;;;;;;8.00;7.30;;;;;;;15.71;48.73;98988.98;1749024;81;21100;-61
2021/11/02 14:07:13;;;;;;;7.70;6.90;;;;;;;15.70;48.73;98982.81;1741737;82;25621;-62
2021/11/02 14:09:47;;;;;;;7.15;6.55;;;;;;;15.68;48.77;98982.22;1745044;82;21015;-62
2021/11/02 14:12:28;;;;;;;7.15;6.55;;;;;;;15.68;48.76;98980.88;1748389;81;21007;-63
2021/11/02 14:15:15;;;;;;;7.37;6.67;;;;;;;15.67;48.77;98977.89;1747954;81;21113;-61
2021/11/02 14:17:53;;;;;;;7.22;6.60;;;;;;;15.66;48.79;98976.23;1752679;81;21855;-61
2021/11/02 14:20:51;;;;;;;7.10;6.50;;;;;;;15.67;48.82;98983.77;1732499;82;21006;-61
2021/11/02 14:23:26;;;;;;;7.53;6.83;;;;;;;15.66;48.83;98977.58;1727586;81;21505;-61
2021/11/02 14:25:51;;;;;;;7.25;6.55;;;;;;;15.64;48.85;98971.63;1738825;82;21065;-63
2021/11/02 14:28:31;;;;;;;7.10;6.50;;;;;;;15.64;48.86;98970.28;1746103;81;21037;-61
2021/11/02 14:30:57;;;;;;;7.97;6.90;;;;;;;15.64;48.85;98974.30;1735757;81;21305;-62
2021/11/02 14:33:44;;;;;;;6.70;6.10;;;;;;;15.64;48.89;98972.15;1749989;81;21056;-62
2021/11/02 14:36:11;;;;;;;7.33;6.62;;;;;;;15.63;48.88;98971.34;1749572;81;21038;-61
2021/11/02 14:38:45;;;;;;;7.15;6.55;;;;;;;15.65;48.87;98969.78;1750201;81;21086;-64
2021/11/02 14:41:33;;;;;;;8.08;7.30;;;;;;;15.64;48.89;98968.13;1751188;82;21054;-63
2021/11/02 14:44:28;;;;;;;7.22;6.62;;;;;;;15.64;48.91;98973.48;1751007;80;21158;-61
2021/11/02 14:46:57;;;;;;;7.00;6.40;;;;;;;15.63;48.92;98975.36;1744347;81;21014;-61
2021/11/02 14:49:37;;;;;;;6.80;6.22;;;;;;;15.62;48.92;98982.27;1706602;82;21014;-62
2021/11/02 14:52:08;;;;;;;7.03;6.33;;;;;;;15.62;48.95;98977.72;1748851;80;21034;-61
2021/11/02 14:54:41;;;;;;;7.12;6.42;;;;;;;15.62;48.95;98971.55;1664805;82;21642;-63
2021/11/02 14:57:26;;;;;;;7.70;7.00;;;;;;;15.62;48.96;98975.56;1724725;81;21110;-61
2021/11/02 14:59:57;;;;;;;6.97;6.20;;;;;;;15.62;48.95;98974.23;1741696;81;21043;-62
2021/11/02 15:02:39;;;;;;;7.05;6.35;;;;;;;15.61;49.00;98972.61;1739998;81;21054;-62
2021/11/02 15:07:45;;;;;;;6.45;5.87;;;;;;;15.65;49.00;98969.26;1866646;76;28560;-61
2021/11/02 15:10:15;;;;;;;7.17;6.47;;;;;;;15.60;49.03;98977.64;1806428;78;21169;-61
2021/11/02 15:12:47;;;;;;;6.92;6.33;;;;;;;15.60;49.02;98976.31;1823858;77;21569;-62
2021/11/02 15:15:14;;;;;;;7.17;6.47;;;;;;;15.62;49.00;98976.91;1806094;78;21061;-62
2021/11/02 15:17:40;;;;;;;7.12;6.42;;;;;;;15.61;48.98;98973.95;1824148;77;20989;-61
2021/11/02 15:20:09;;;;;;;6.78;6.17;;;;;;;15.61;49.01;98973.42;1820190;78;21485;-62
2021/11/02 15:22:35;;;;;;;7.33;6.62;;;;;;;15.61;49.00;98976.09;1824878;77;20993;-63
2021/11/02 15:25:07;;;;;;;7.47;6.78;;;;;;;15.61;49.01;98976.62;1822260;77;21208;-61
2021/11/02 15:27:37;;;;;;;6.70;6.10;;;;;;;15.63;49.02;98975.88;1833968;77;21480;-61
2021/11/02 15:30:08;;;;;;;6.28;5.72;;;;;;;15.62;49.01;98975.56;1823021;77;21099;-61
2021/11/02 15:32:42;;;;;;;7.10;6.47;;;;;;;15.63;49.00;98970.53;1826131;77;20986;-60
2021/11/02 15:35:15;;;;;;;6.50;5.92;;;;;;;15.62;49.01;98973.70;1823318;77;20997;-62
2021/11/02 15:37:47;;;;;;;7.03;6.42;;;;;;;15.62;49.01;98968.34;1822522;77;21134;-62
2021/11/02 15:40:21;;;;;;;6.85;6.25;;;;;;;15.63;49.02;98967.84;1824211;77;20993;-61
2021/11/02 15:42:51;;;;;;;6.75;6.15;;;;;;;15.63;49.01;98967.84;1825565;78;21033;-61
2021/11/02 15:45:35;;;;;;;6.60;5.97;;;;;;;15.63;49.02;98970.53;1823308;77;21076;-61
2021/11/02 15:48:06;;;;;;;6.85;6.17;;;;;;;15.63;49.03;98959.81;1824701;78;20990;-61
2021/11/02 15:50:34;;;;;;;6.58;5.97;;;;;;;15.62;49.03;98952.28;1821544;78;21583;-61
2021/11/02 15:53:04;;;;;;;6.28;5.70;;;;;;;15.62;49.04;98960.84;1809736;77;21457;-61
2021/11/02 15:55:31;;;;;;;6.65;6.05;;;;;;;15.63;49.06;98963.83;1826316;77;20993;-61
2021/11/02 15:58:02;;;;;;;6.83;6.12;;;;;;;15.61;49.04;98964.05;1825319;77;21005;-61
2021/11/02 16:00:38;;;;;;;6.75;6.05;;;;;;;15.63;49.03;98970.53;1820368;78;21065;-61
2021/11/02 16:03:04;;;;;;;6.28;5.78;;;;;;;15.63;49.07;98974.55;1820686;77;21128;-61
2021/11/02 16:05:35;;;;;;;6.87;6.28;;;;;;;15.63;49.05;98971.86;1826176;76;21151;-60
2021/11/02 16:08:18;;;;;;;6.80;6.20;;;;;;;15.62;49.06;98971.02;1826120;77;21049;-62
2021/11/02 16:11:04;;;;;;;7.00;6.30;;;;;;;15.62;49.06;98968.88;1826235;77;21006;-60
2021/11/02 16:13:30;;;;;;;6.62;6.03;;;;;;;15.62;49.08;98968.88;1826424;77;20998;-60
2021/11/02 16:16:00;;;;;;;6.67;6.08;;;;;;;15.61;49.09;98969.41;1826258;77;21930;-62
2021/11/02 16:18:34;;;;;;;6.03;5.53;;;;;;;15.61;49.11;98970.73;1825361;77;21027;-62
2021/11/02 16:21:04;;;;;;;6.60;5.90;;;;;;;15.62;49.10;98976.91;1824841;78;20986;-63
2021/11/02 16:23:47;;;;;;;6.22;5.62;;;;;;;15.62;49.12;98974.23;1825244;78;21056;-62
2021/11/02 16:26:27;;;;;;;7.27;6.57;;;;;;;15.61;49.11;98973.95;1813862;77;21107;-60
2021/11/02 16:28:58;;;;;;;6.28;5.75;;;;;;;15.62;49.14;98971.02;1822410;78;21152;-61
2021/11/02 16:31:27;;;;;;;6.30;5.70;;;;;;;15.61;49.14;98968.59;1824423;77;21014;-61
2021/11/02 16:33:54;;;;;;;6.65;6.05;;;;;;;15.62;49.12;98964.86;1824492;77;21009;-61
2021/11/02 16:36:25;;;;;;;6.28;5.75;;;;;;;15.61;49.15;98967.25;1822490;78;21012;-61